This is the latest recevied weather packets stored in our database for station/object EA5BZ. If no packets are shown the sender has not sent any weather packets the latest 10 day(s).
| Time | Temp. | Humidity | Pressure | Rain* | Wind** | Luminosity | Snow |
|---|---|---|---|---|---|---|---|
| 1777669837 | 18.33° C | 86% | 1023.4 hPa | 0 mm | - | - | - |
| 1777669517 | 18.33° C | 86% | 1023.2 hPa | 0 mm | - | - | - |
| 1777669217 | 18.33° C | 86% | 1023.2 hPa | 0 mm | - | - | - |
| 1777668017 | 18.33° C | 86% | 1023.1 hPa | 0 mm | - | - | - |
| 1777666817 | 18.33° C | 86% | 1023 hPa | 0 mm | - | - | - |
| 1777666517 | 18.33° C | 86% | 1023 hPa | 0 mm | - | - | - |
| 1777665917 | 18.33° C | 86% | 1022.8 hPa | 0 mm | - | - | - |
| 1777663817 | 18.33° C | 86% | 1022.6 hPa | 0 mm | - | - | - |
| 1777660537 | 18.89° C | 84% | 1022 hPa | 0 mm | - | - | - |
| 1777659037 | 18.89° C | 83% | 1021.7 hPa | 0 mm | - | - | - |
| 1777657837 | 18.89° C | 83% | 1021.5 hPa | 0 mm | - | - | - |
| 1777656917 | 19.44° C | 82% | 1021.5 hPa | 0 mm | - | - | - |
| 1777656617 | 19.44° C | 81% | 1021.5 hPa | 0 mm | - | - | - |
| 1777655717 | 20° C | 79% | 1021.3 hPa | 0 mm | - | - | - |
| 1777655417 | 20° C | 79% | 1021.3 hPa | 0 mm | - | - | - |
| 1777655116 | 20° C | 79% | 1021.3 hPa | 0 mm | - | - | - |
| 1777652716 | 20.56° C | 78% | 1021.1 hPa | 0 mm | - | - | - |
| 1777651216 | 20° C | 79% | 1020.7 hPa | 0 mm | - | - | - |
| 1777648816 | 20.56° C | 76% | 1020.7 hPa | 0 mm | - | - | - |
| 1777647916 | 20.56° C | 77% | 1020.8 hPa | 0 mm | - | - | - |
| 1777645816 | 21.11° C | 74% | 1021 hPa | 0 mm | - | - | - |
| 1777645217 | 21.11° C | 73% | 1020.9 hPa | 0 mm | - | - | - |
| 1777644936 | 21.11° C | 73% | 1020.9 hPa | 0 mm | - | - | - |
| 1777644616 | 21.11° C | 74% | 1021 hPa | 0 mm | - | - | - |
| 1777636816 | 22.22° C | 63% | 1020.9 hPa | 0 mm | - | - | - |
* Rain latest hour (hover to see other rain measurements)
** Current wind speed in m/s (hover to see current wind gust speed)